Time;durP1;ratioP1;P1;durP2;ratioP2;P2;SDS_P1;SDS_P2;PMS_P1;PMS_P2;Temp;Humidity;BMP_temperature;BMP_pressure;BME280_temperature;BME280_humidity;BME280_pressure;Samples;Min_cycle;Max_cycle;Signal;HPM_P1;HPM_P2
2022/09/12 00:02:02;;;;;;;0.00;0.00;;;14.40;99.90;;;;;;5063304;28;20439;-79
2022/09/12 00:04:29;;;;;;;0.00;0.00;;;14.40;99.90;;;;;;5068735;28;20554;-79
2022/09/12 00:06:55;;;;;;;0.00;0.00;;;14.40;99.90;;;;;;5062540;28;20038;-79
2022/09/12 00:09:22;;;;;;;0.00;0.00;;;14.30;99.90;;;;;;5059624;28;20040;-79
2022/09/12 00:11:49;;;;;;;0.00;0.00;;;14.40;99.90;;;;;;5059973;28;20514;-79
2022/09/12 00:14:17;;;;;;;0.00;0.00;;;14.40;99.90;;;;;;5061374;28;20045;-78
2022/09/12 00:16:45;;;;;;;0.10;0.10;;;14.40;99.90;;;;;;5056422;28;20397;-78
2022/09/12 00:19:12;;;;;;;0.00;0.00;;;14.40;99.90;;;;;;5045164;28;20683;-79
2022/09/12 00:21:40;;;;;;;0.00;0.00;;;14.40;99.90;;;;;;5058068;28;20478;-79
2022/09/12 00:24:08;;;;;;;0.00;0.00;;;14.40;99.90;;;;;;5062944;28;20048;-79
2022/09/12 00:26:35;;;;;;;0.00;0.00;;;14.40;99.90;;;;;;5063549;28;20399;-78
2022/09/12 00:29:02;;;;;;;0.00;0.00;;;14.40;99.90;;;;;;5059274;28;20053;-79
2022/09/12 00:31:29;;;;;;;0.00;0.00;;;14.40;99.90;;;;;;5057330;28;20037;-80
2022/09/12 00:33:59;;;;;;;0.00;0.00;;;14.40;99.90;;;;;;5058803;28;20055;-79
2022/09/12 00:36:27;;;;;;;0.00;0.00;;;14.30;99.90;;;;;;5060302;28;20041;-79
2022/09/12 00:38:54;;;;;;;0.00;0.00;;;14.20;99.90;;;;;;5059010;28;20052;-80
2022/09/12 00:41:23;;;;;;;0.00;0.00;;;14.20;99.90;;;;;;5061824;28;20764;-80
2022/09/12 00:43:52;;;;;;;0.00;0.00;;;14.20;99.90;;;;;;5056775;28;20074;-80
2022/09/12 00:46:29;;;;;;;0.00;0.00;;;14.10;99.90;;;;;;5066109;28;20415;-80
2022/09/12 00:49:00;;;;;;;0.00;0.00;;;14.10;99.90;;;;;;5059360;28;20055;-78
2022/09/12 00:51:30;;;;;;;0.00;0.00;;;14.10;99.90;;;;;;5061638;28;20041;-80
2022/09/12 00:53:59;;;;;;;0.00;0.00;;;14.10;99.90;;;;;;5062784;28;20071;-79
2022/09/12 00:56:26;;;;;;;0.00;0.00;;;14.10;99.90;;;;;;5061422;28;20034;-79
2022/09/12 00:58:59;;;;;;;0.00;0.00;;;13.80;99.90;;;;;;5059067;28;20128;-77
2022/09/12 01:01:26;;;;;;;0.00;0.00;;;13.80;99.90;;;;;;5052380;28;20063;-79
2022/09/12 01:04:00;;;;;;;0.00;0.00;;;13.90;99.90;;;;;;5062468;28;20049;-79
2022/09/12 01:06:31;;;;;;;0.00;0.00;;;13.80;99.90;;;;;;5059394;28;20507;-80
2022/09/12 01:09:02;;;;;;;0.00;0.00;;;13.80;99.90;;;;;;5061471;28;20680;-79
2022/09/12 01:11:30;;;;;;;0.00;0.00;;;13.80;99.90;;;;;;5056911;28;20038;-79
2022/09/12 01:13:56;;;;;;;0.10;0.10;;;13.80;99.90;;;;;;5063180;28;20046;-79
2022/09/12 01:16:23;;;;;;;0.00;0.00;;;13.80;99.90;;;;;;5063299;28;20044;-79
2022/09/12 01:18:58;;;;;;;0.00;0.00;;;13.80;99.90;;;;;;5059551;28;20045;-78
2022/09/12 01:21:35;;;;;;;0.00;0.00;;;13.80;99.90;;;;;;5058776;28;20033;-80
2022/09/12 01:24:33;;;;;;;0.00;0.00;;;13.80;99.90;;;;;;5064630;28;20048;-79
2022/09/12 01:27:25;;;;;;;0.00;0.00;;;13.80;99.90;;;;;;5054020;28;20052;-79
2022/09/12 01:30:29;;;;;;;0.00;0.00;;;13.80;99.90;;;;;;5064022;28;20045;-79
2022/09/12 01:33:15;;;;;;;0.00;0.00;;;13.80;99.90;;;;;;5054374;28;20040;-79
2022/09/12 01:35:50;;;;;;;0.00;0.00;;;13.80;99.90;;;;;;5056518;28;20052;-79
2022/09/12 01:38:24;;;;;;;0.00;0.00;;;13.80;99.90;;;;;;5061152;28;20497;-79
2022/09/12 01:41:00;;;;;;;0.00;0.00;;;13.70;99.90;;;;;;5058253;28;20047;-79
2022/09/12 01:43:34;;;;;;;0.00;0.00;;;13.70;99.90;;;;;;5057120;28;20037;-79
2022/09/12 01:46:08;;;;;;;0.00;0.00;;;13.70;99.90;;;;;;5064265;28;20029;-79
2022/09/12 01:48:39;;;;;;;0.00;0.00;;;13.60;99.90;;;;;;5058439;28;20500;-79
2022/09/12 01:51:12;;;;;;;0.00;0.00;;;13.50;99.90;;;;;;5058588;28;20043;-79
2022/09/12 01:53:43;;;;;;;0.00;0.00;;;13.50;99.90;;;;;;5059961;28;20049;-79
2022/09/12 01:56:14;;;;;;;0.00;0.00;;;13.60;99.90;;;;;;5062796;28;20052;-79
2022/09/12 01:58:46;;;;;;;0.00;0.00;;;13.50;99.90;;;;;;5056113;28;20075;-78
2022/09/12 02:01:19;;;;;;;0.00;0.00;;;13.40;99.90;;;;;;5057808;28;20051;-79
2022/09/12 02:03:51;;;;;;;0.00;0.00;;;13.40;99.90;;;;;;5061325;28;20497;-79
2022/09/12 02:06:22;;;;;;;0.00;0.00;;;13.40;99.90;;;;;;5059411;28;20040;-79
2022/09/12 02:08:53;;;;;;;0.00;0.00;;;13.40;99.90;;;;;;5061640;28;20045;-79
2022/09/12 02:11:20;;;;;;;0.00;0.00;;;13.40;99.90;;;;;;5062047;28;20488;-79
2022/09/12 02:13:54;;;;;;;0.00;0.00;;;13.30;99.90;;;;;;5057149;28;20043;-79
2022/09/12 02:16:29;;;;;;;0.00;0.00;;;13.30;99.90;;;;;;5063200;28;20041;-80
2022/09/12 02:19:01;;;;;;;0.00;0.00;;;13.30;99.90;;;;;;5064665;28;20042;-78
2022/09/12 02:21:31;;;;;;;0.00;0.00;;;13.30;99.90;;;;;;5062385;28;20028;-79
2022/09/12 02:24:01;;;;;;;;;;;13.30;99.90;;;;;;5062029;28;20051;-77
2022/09/12 02:26:32;;;;;;;0.00;0.00;;;13.20;99.90;;;;;;5056122;28;19959;-79
2022/09/12 02:28:59;;;;;;;0.00;0.00;;;13.20;99.90;;;;;;5060702;28;20488;-79
2022/09/12 02:31:32;;;;;;;0.00;0.00;;;13.10;99.90;;;;;;5065995;28;20036;-79
2022/09/12 02:34:09;;;;;;;0.00;0.00;;;13.10;99.90;;;;;;5064807;28;20044;-78
2022/09/12 02:36:45;;;;;;;0.00;0.00;;;13.10;99.90;;;;;;5060618;28;20043;-79
2022/09/12 02:39:12;;;;;;;0.00;0.00;;;13.10;99.90;;;;;;5066968;28;20047;-78
2022/09/12 02:41:38;;;;;;;0.00;0.00;;;13.00;99.90;;;;;;5058816;28;20073;-79
2022/09/12 02:44:05;;;;;;;0.00;0.00;;;13.10;99.90;;;;;;5066861;28;20047;-77
2022/09/12 02:46:37;;;;;;;0.00;0.00;;;13.10;99.90;;;;;;5062979;28;20043;-79
2022/09/12 02:49:04;;;;;;;0.00;0.00;;;13.10;99.90;;;;;;5069864;28;20388;-79
2022/09/12 02:51:31;;;;;;;0.00;0.00;;;13.10;99.90;;;;;;5070465;28;20059;-79
2022/09/12 02:53:58;;;;;;;0.00;0.00;;;13.10;99.90;;;;;;5067050;28;20570;-80
2022/09/12 02:56:27;;;;;;;0.00;0.00;;;13.10;99.90;;;;;;5057925;28;20040;-79
2022/09/12 02:58:59;;;;;;;0.00;0.00;;;13.10;99.90;;;;;;5059193;28;20523;-79
2022/09/12 03:01:54;;;;;;;0.00;0.00;;;13.00;99.90;;;;;;5058905;28;20040;-79
2022/09/12 03:04:44;;;;;;;0.00;0.00;;;13.00;99.90;;;;;;5065894;28;20055;-79
2022/09/12 03:07:17;;;;;;;0.00;0.00;;;13.00;99.90;;;;;;5042597;28;20626;-79
2022/09/12 03:09:48;;;;;;;0.00;0.00;;;13.00;99.90;;;;;;5069315;28;20501;-79
2022/09/12 03:12:24;;;;;;;0.00;0.00;;;13.00;99.90;;;;;;5069030;28;20045;-79
2022/09/12 03:15:06;;;;;;;0.00;0.00;;;12.90;99.90;;;;;;5069874;28;20048;-79
2022/09/12 03:17:45;;;;;;;0.00;0.00;;;12.90;99.90;;;;;;5062641;28;20044;-78
2022/09/12 03:20:16;;;;;;;0.00;0.00;;;12.90;99.90;;;;;;5059859;28;20638;-79
2022/09/12 03:22:52;;;;;;;0.00;0.00;;;12.80;99.90;;;;;;5056331;28;20048;-78
2022/09/12 03:25:23;;;;;;;0.00;0.00;;;12.80;99.90;;;;;;5062895;28;20038;-79
2022/09/12 03:27:56;;;;;;;0.00;0.00;;;12.80;99.90;;;;;;5059043;28;20412;-79
2022/09/12 03:30:24;;;;;;;0.00;0.00;;;12.80;99.90;;;;;;5060737;28;20095;-79
2022/09/12 03:32:53;;;;;;;0.00;0.00;;;12.80;99.90;;;;;;5057264;28;20044;-79
2022/09/12 03:35:23;;;;;;;0.00;0.00;;;12.80;99.90;;;;;;5056180;28;20045;-79
2022/09/12 03:37:51;;;;;;;0.00;0.00;;;12.80;99.90;;;;;;5064333;28;20041;-79
2022/09/12 03:40:18;;;;;;;0.00;0.00;;;12.70;99.90;;;;;;5066453;28;20929;-79
2022/09/12 03:42:45;;;;;;;0.00;0.00;;;12.70;99.90;;;;;;5063326;28;20060;-80
2022/09/12 03:45:11;;;;;;;0.00;0.00;;;12.70;99.90;;;;;;5067002;28;20040;-79
2022/09/12 03:47:39;;;;;;;0.00;0.00;;;12.80;99.90;;;;;;5070179;28;20416;-78
2022/09/12 03:50:07;;;;;;;0.00;0.00;;;12.80;99.90;;;;;;5065156;28;20419;-79
2022/09/12 03:52:34;;;;;;;0.00;0.00;;;12.70;99.90;;;;;;5066996;28;20036;-78
2022/09/12 03:55:01;;;;;;;0.00;0.00;;;12.70;99.90;;;;;;5062945;28;20039;-78
2022/09/12 03:57:28;;;;;;;0.00;0.00;;;12.70;99.90;;;;;;5059372;28;20051;-79
2022/09/12 03:59:54;;;;;;;0.00;0.00;;;12.80;99.90;;;;;;5061284;28;20435;-79
2022/09/12 04:02:21;;;;;;;0.00;0.00;;;12.80;99.90;;;;;;5057925;28;20043;-80
2022/09/12 04:04:48;;;;;;;0.00;0.00;;;12.70;99.90;;;;;;5062213;28;20497;-79
2022/09/12 04:07:16;;;;;;;0.00;0.00;;;12.70;99.90;;;;;;5066062;28;20040;-77
2022/09/12 04:09:43;;;;;;;0.00;0.00;;;12.70;99.90;;;;;;5061647;28;20412;-78
2022/09/12 04:12:11;;;;;;;0.00;0.00;;;12.80;99.90;;;;;;5060456;28;20124;-79
2022/09/12 04:14:38;;;;;;;0.00;0.00;;;12.80;99.90;;;;;;5062590;28;20071;-77
2022/09/12 04:17:05;;;;;;;0.00;0.00;;;12.80;99.90;;;;;;5067261;28;20041;-80
2022/09/12 04:19:31;;;;;;;0.00;0.00;;;12.80;99.90;;;;;;5068451;28;20507;-80
2022/09/12 04:21:58;;;;;;;0.00;0.00;;;12.80;99.90;;;;;;5065567;28;20415;-79
2022/09/12 04:24:26;;;;;;;0.00;0.00;;;12.70;99.90;;;;;;5060143;28;20424;-79
2022/09/12 04:26:53;;;;;;;0.00;0.00;;;12.70;99.90;;;;;;5069198;28;20048;-80
2022/09/12 04:29:20;;;;;;;0.00;0.00;;;12.70;99.90;;;;;;5056938;28;20044;-79
2022/09/12 04:31:47;;;;;;;0.00;0.00;;;12.60;99.90;;;;;;5058774;28;20481;-80
2022/09/12 04:34:14;;;;;;;0.00;0.00;;;12.50;99.90;;;;;;5060843;28;20036;-78
2022/09/12 04:36:41;;;;;;;0.00;0.00;;;12.50;99.90;;;;;;5061366;28;20053;-79
2022/09/12 04:39:09;;;;;;;0.00;0.00;;;12.50;99.90;;;;;;5064415;28;20059;-80
2022/09/12 04:41:38;;;;;;;0.00;0.00;;;12.50;99.90;;;;;;5061397;28;20059;-79
2022/09/12 04:44:07;;;;;;;0.00;0.00;;;12.50;99.90;;;;;;5052524;28;20041;-78
2022/09/12 04:46:37;;;;;;;0.00;0.00;;;12.50;99.90;;;;;;5057097;28;20036;-80
2022/09/12 04:49:04;;;;;;;0.10;0.10;;;12.40;99.90;;;;;;5052204;28;20086;-79
2022/09/12 04:51:33;;;;;;;0.00;0.00;;;12.50;99.90;;;;;;5059461;28;20497;-79
2022/09/12 04:54:02;;;;;;;0.00;0.00;;;12.50;99.90;;;;;;5059778;28;20046;-79
2022/09/12 04:56:29;;;;;;;0.00;0.00;;;12.40;99.90;;;;;;5055364;28;20041;-79
2022/09/12 04:58:59;;;;;;;0.00;0.00;;;12.40;99.90;;;;;;5062977;28;20045;-79
2022/09/12 05:01:27;;;;;;;0.00;0.00;;;12.30;99.90;;;;;;5054242;28;20417;-79
2022/09/12 05:03:55;;;;;;;0.00;0.00;;;12.30;99.90;;;;;;5061126;28;20392;-79
2022/09/12 05:06:23;;;;;;;0.00;0.00;;;12.30;99.90;;;;;;5065923;28;21013;-79
2022/09/12 05:08:51;;;;;;;0.00;0.00;;;12.30;99.90;;;;;;5064175;28;20136;-80
2022/09/12 05:11:20;;;;;;;0.00;0.00;;;12.40;99.90;;;;;;5061833;28;20038;-79
2022/09/12 05:13:53;;;;;;;0.00;0.00;;;12.30;99.90;;;;;;5067748;28;20049;-79
2022/09/12 05:16:22;;;;;;;0.00;0.00;;;12.30;99.90;;;;;;5063896;28;20041;-79
2022/09/12 05:18:49;;;;;;;0.00;0.00;;;12.30;99.90;;;;;;5058872;28;20097;-78
2022/09/12 05:21:17;;;;;;;0.00;0.00;;;12.40;99.90;;;;;;5061754;28;20420;-79
2022/09/12 05:23:46;;;;;;;0.00;0.00;;;12.40;99.90;;;;;;5055827;28;20044;-78
2022/09/12 05:26:14;;;;;;;0.00;0.00;;;12.40;99.90;;;;;;5056638;28;20074;-79
2022/09/12 05:28:42;;;;;;;0.00;0.00;;;12.40;99.90;;;;;;5061891;28;20053;-79
2022/09/12 05:31:11;;;;;;;0.00;0.00;;;12.40;99.90;;;;;;5056433;28;20044;-80
2022/09/12 05:33:40;;;;;;;0.00;0.00;;;12.50;99.90;;;;;;5053762;28;20047;-79
2022/09/12 05:36:10;;;;;;;0.00;0.00;;;12.50;99.90;;;;;;5055750;28;20059;-79
2022/09/12 05:38:37;;;;;;;0.00;0.00;;;12.40;99.90;;;;;;5059989;28;20040;-79
2022/09/12 05:41:06;;;;;;;0.00;0.00;;;12.40;99.90;;;;;;5056731;28;20505;-80
2022/09/12 05:43:33;;;;;;;0.00;0.00;;;12.40;99.90;;;;;;5056327;28;20043;-79
2022/09/12 05:46:01;;;;;;;0.00;0.00;;;12.40;99.90;;;;;;5055882;28;20048;-79
2022/09/12 05:48:28;;;;;;;0.00;0.00;;;12.50;99.90;;;;;;5060892;28;20041;-80
2022/09/12 05:51:01;;;;;;;0.00;0.00;;;12.50;99.90;;;;;;5057238;28;20038;-79
2022/09/12 05:53:29;;;;;;;0.00;0.00;;;12.60;99.90;;;;;;5056126;28;20068;-79
2022/09/12 05:56:05;;;;;;;0.00;0.00;;;12.60;99.90;;;;;;5058828;28;20108;-78
2022/09/12 05:58:32;;;;;;;0.00;0.00;;;12.70;99.90;;;;;;5063112;28;20041;-79
2022/09/12 06:01:05;;;;;;;0.00;0.00;;;12.70;99.90;;;;;;5058712;28;20052;-79
2022/09/12 06:03:32;;;;;;;0.00;0.00;;;12.80;99.90;;;;;;5059408;28;20098;-79
2022/09/12 06:06:05;;;;;;;0.00;0.00;;;12.80;99.90;;;;;;5059261;28;20043;-77
2022/09/12 06:08:33;;;;;;;0.13;0.13;;;12.90;99.90;;;;;;5058698;28;20052;-79
2022/09/12 06:11:01;;;;;;;0.10;0.10;;;12.90;99.90;;;;;;5056580;28;20044;-79
2022/09/12 06:13:30;;;;;;;0.10;0.10;;;13.00;99.90;;;;;;5060170;28;20041;-77
2022/09/12 06:16:02;;;;;;;0.10;0.10;;;13.00;99.90;;;;;;5068817;28;20526;-80
2022/09/12 06:18:29;;;;;;;0.05;0.05;;;13.10;99.90;;;;;;5059964;28;20044;-80
2022/09/12 06:20:56;;;;;;;0.00;0.00;;;13.10;99.90;;;;;;5065283;28;20032;-79
2022/09/12 06:23:25;;;;;;;0.00;0.00;;;13.20;99.90;;;;;;5066579;28;20039;-79
2022/09/12 06:25:52;;;;;;;0.10;0.10;;;13.30;99.90;;;;;;5069820;28;20044;-79
2022/09/12 06:28:19;;;;;;;0.10;0.10;;;13.40;99.90;;;;;;5061310;28;20041;-78
2022/09/12 06:30:46;;;;;;;0.00;0.00;;;13.40;99.90;;;;;;5066416;28;20189;-81
2022/09/12 06:33:12;;;;;;;0.10;0.10;;;13.40;99.90;;;;;;5065537;28;20036;-79
2022/09/12 06:35:39;;;;;;;0.10;0.10;;;13.50;99.90;;;;;;5070175;28;20527;-79
2022/09/12 06:38:06;;;;;;;0.30;0.30;;;13.60;99.90;;;;;;5058842;28;20128;-79
2022/09/12 06:40:39;;;;;;;0.10;0.10;;;13.40;99.90;;;;;;5064030;28;20047;-79
2022/09/12 06:43:06;;;;;;;0.10;0.10;;;13.40;99.90;;;;;;5065653;28;20033;-79
2022/09/12 06:45:33;;;;;;;0.10;0.10;;;13.50;99.90;;;;;;5060312;28;20049;-79
2022/09/12 06:48:00;;;;;;;0.10;0.10;;;13.50;99.90;;;;;;5060411;28;20041;-79
2022/09/12 06:50:27;;;;;;;0.00;0.00;;;13.60;99.90;;;;;;5062693;28;20035;-79
2022/09/12 06:52:53;;;;;;;0.10;0.10;;;13.60;99.90;;;;;;5062635;28;20041;-79
2022/09/12 06:55:23;;;;;;;0.10;0.10;;;13.70;99.90;;;;;;5067193;28;20048;-79
2022/09/12 06:57:55;;;;;;;0.00;0.00;;;13.70;99.90;;;;;;5059580;28;20071;-79
2022/09/12 07:00:21;;;;;;;0.00;0.00;;;13.80;99.90;;;;;;5057795;28;20052;-79
2022/09/12 07:02:52;;;;;;;0.00;0.00;;;13.90;99.90;;;;;;5066239;28;20044;-79
2022/09/12 07:05:19;;;;;;;0.00;0.00;;;13.90;99.90;;;;;;5063335;28;20040;-79
2022/09/12 07:07:45;;;;;;;0.00;0.00;;;14.00;99.90;;;;;;5068834;28;20072;-79
2022/09/12 07:10:12;;;;;;;0.00;0.00;;;14.00;99.90;;;;;;5062126;28;20051;-80
2022/09/12 07:12:39;;;;;;;0.00;0.00;;;14.10;99.90;;;;;;5062603;28;20061;-80
2022/09/12 07:15:09;;;;;;;0.00;0.00;;;14.20;99.90;;;;;;5061187;28;20055;-79
2022/09/12 07:17:36;;;;;;;0.00;0.00;;;14.20;99.90;;;;;;5063645;28;20049;-79
2022/09/12 07:20:03;;;;;;;0.00;0.00;;;14.30;99.90;;;;;;5068083;28;20493;-79
2022/09/12 07:22:30;;;;;;;0.00;0.00;;;14.30;99.90;;;;;;5058587;28;21620;-80
2022/09/12 07:24:57;;;;;;;0.00;0.00;;;14.20;99.90;;;;;;5067091;28;20066;-79
2022/09/12 07:27:24;;;;;;;0.00;0.00;;;14.20;99.90;;;;;;5066352;28;20420;-79
2022/09/12 07:29:51;;;;;;;0.00;0.00;;;14.30;99.90;;;;;;5061975;28;20047;-78
2022/09/12 07:32:19;;;;;;;0.00;0.00;;;14.40;99.90;;;;;;5070781;28;20052;-79
2022/09/12 07:34:46;;;;;;;0.00;0.00;;;14.50;99.90;;;;;;5073198;28;20526;-79
2022/09/12 07:37:13;;;;;;;0.00;0.00;;;14.50;99.90;;;;;;5068302;28;20048;-80
2022/09/12 07:39:39;;;;;;;0.00;0.00;;;14.60;99.90;;;;;;5071941;28;20047;-79
2022/09/12 07:42:06;;;;;;;0.00;0.00;;;14.50;99.90;;;;;;5067526;28;20461;-79
2022/09/12 07:44:33;;;;;;;0.00;0.00;;;14.70;99.90;;;;;;5071439;28;20108;-79
2022/09/12 07:47:00;;;;;;;0.00;0.00;;;14.80;99.90;;;;;;5064138;28;20042;-80
2022/09/12 07:49:29;;;;;;;0.00;0.00;;;14.90;99.90;;;;;;5061971;28;20045;-78
2022/09/12 07:51:56;;;;;;;0.00;0.00;;;15.10;99.90;;;;;;5064970;28;20059;-79
2022/09/12 07:54:23;;;;;;;0.00;0.00;;;15.20;99.90;;;;;;5059889;28;20416;-79
2022/09/12 07:56:50;;;;;;;0.00;0.00;;;15.30;99.90;;;;;;5103480;22;20411;-85
2022/09/12 07:59:17;;;;;;;0.05;0.05;;;15.40;99.90;;;;;;5084733;28;20060;-83
2022/09/12 08:02:04;;;;;;;0.00;0.00;;;15.40;99.90;;;;;;5078957;28;20105;-85
2022/09/12 08:04:32;;;;;;;0.00;0.00;;;15.50;99.90;;;;;;5082288;28;20102;-83
2022/09/12 08:06:59;;;;;;;0.00;0.00;;;15.50;99.90;;;;;;5082295;28;20044;-84
2022/09/12 08:09:25;;;;;;;0.00;0.00;;;15.60;99.90;;;;;;5071486;28;20044;-86
2022/09/12 08:11:52;;;;;;;0.00;0.00;;;15.70;99.90;;;;;;5084579;28;20072;-86
2022/09/12 08:14:20;;;;;;;0.00;0.00;;;15.80;99.90;;;;;;5075701;28;20330;-85
2022/09/12 08:16:47;;;;;;;0.00;0.00;;;15.90;99.90;;;;;;5066219;28;20084;-86
2022/09/12 08:19:14;;;;;;;0.00;0.00;;;15.90;99.90;;;;;;5068672;28;20036;-85
2022/09/12 08:21:42;;;;;;;0.00;0.00;;;16.00;99.90;;;;;;5071907;28;20050;-87
2022/09/12 08:24:11;;;;;;;0.00;0.00;;;16.20;99.90;;;;;;5070874;28;20063;-85
2022/09/12 08:26:38;;;;;;;0.00;0.00;;;16.30;99.90;;;;;;5074466;28;20040;-84
2022/09/12 08:29:04;;;;;;;0.00;0.00;;;16.40;99.90;;;;;;5072459;28;20412;-85
2022/09/12 08:31:35;;;;;;;0.00;0.00;;;16.50;99.90;;;;;;5073892;28;20412;-85
2022/09/12 08:34:03;;;;;;;0.00;0.00;;;16.60;99.90;;;;;;5066812;28;20526;-85
2022/09/12 08:36:31;;;;;;;0.00;0.00;;;16.70;99.90;;;;;;5070179;28;20040;-86
2022/09/12 08:39:03;;;;;;;0.00;0.00;;;16.90;99.90;;;;;;5075134;28;20501;-86
2022/09/12 08:41:33;;;;;;;0.00;0.00;;;17.10;99.90;;;;;;5070224;28;20041;-86
2022/09/12 08:44:38;;;;;;;0.00;0.00;;;17.30;99.90;;;;;;5065827;28;20044;-87
2022/09/12 08:47:16;;;;;;;0.00;0.00;;;17.60;99.90;;;;;;5075516;28;20484;-86
2022/09/12 08:49:52;;;;;;;0.00;0.00;;;17.70;99.90;;;;;;5069874;28;20076;-87
2022/09/12 08:52:24;;;;;;;0.00;0.00;;;17.80;99.90;;;;;;5076122;28;20072;-86
2022/09/12 08:54:55;;;;;;;0.00;0.00;;;17.90;99.90;;;;;;5075273;28;20380;-86
2022/09/12 08:57:23;;;;;;;0.00;0.00;;;18.10;99.90;;;;;;5070888;28;20064;-85
2022/09/12 08:59:51;;;;;;;0.00;0.00;;;18.20;99.90;;;;;;5069155;28;20059;-86
2022/09/12 09:02:38;;;;;;;0.00;0.00;;;18.30;99.90;;;;;;5079251;28;20049;-85
2022/09/12 09:05:16;;;;;;;0.00;0.00;;;18.50;99.90;;;;;;5074066;28;20662;-86
2022/09/12 09:08:05;;;;;;;0.00;0.00;;;18.50;99.90;;;;;;5080538;28;20040;-86
2022/09/12 09:10:41;;;;;;;0.00;0.00;;;18.50;99.90;;;;;;5078201;28;20052;-85
2022/09/12 09:14:46;;;;;;;0.00;0.00;;;18.50;99.90;;;;;;5063878;28;20051;-83
2022/09/12 09:16:11;;;;;;;0.00;0.00;;;18.60;99.90;;;;;;5064977;28;20040;-84
2022/09/12 09:18:39;;;;;;;0.00;0.00;;;18.90;99.90;;;;;;5068010;28;20063;-85
2022/09/12 09:21:17;;;;;;;0.00;0.00;;;19.00;99.90;;;;;;5065791;28;20064;-84
2022/09/12 09:23:48;;;;;;;0.00;0.00;;;19.10;99.90;;;;;;5068461;28;20066;-83
2022/09/12 09:26:25;;;;;;;0.00;0.00;;;19.20;99.90;;;;;;5069192;28;20058;-84
2022/09/12 09:28:56;;;;;;;0.00;0.00;;;19.70;99.90;;;;;;5063647;28;20049;-84
2022/09/12 09:31:25;;;;;;;0.00;0.00;;;19.60;99.90;;;;;;5067622;28;20044;-82
2022/09/12 09:33:56;;;;;;;0.00;0.00;;;19.80;99.90;;;;;;5064384;28;20057;-83
2022/09/12 09:36:35;;;;;;;0.00;0.00;;;20.00;99.90;;;;;;5070348;28;20504;-83
2022/09/12 09:39:05;;;;;;;0.00;0.00;;;20.20;99.90;;;;;;5080835;28;20048;-85
2022/09/12 09:41:46;;;;;;;0.00;0.00;;;20.10;99.90;;;;;;5064529;28;20287;-83
2022/09/12 09:44:13;;;;;;;0.00;0.00;;;20.30;99.90;;;;;;5060631;28;20044;-84
2022/09/12 09:46:40;;;;;;;0.00;0.00;;;20.30;99.90;;;;;;5068127;28;20070;-85
2022/09/12 09:49:11;;;;;;;0.00;0.00;;;20.40;99.90;;;;;;5068111;28;20044;-85
2022/09/12 09:51:41;;;;;;;0.00;0.00;;;20.40;99.90;;;;;;5069919;28;20111;-84
2022/09/12 09:54:16;;;;;;;0.00;0.00;;;20.50;99.90;;;;;;5066223;28;20033;-84
2022/09/12 09:56:45;;;;;;;0.00;0.00;;;20.60;99.90;;;;;;5066561;28;20047;-86
2022/09/12 09:59:15;;;;;;;0.00;0.00;;;20.80;99.90;;;;;;5065519;28;20051;-84
2022/09/12 10:01:48;;;;;;;0.00;0.00;;;20.90;99.90;;;;;;5074416;28;20043;-86
2022/09/12 10:04:19;;;;;;;0.00;0.00;;;21.10;99.90;;;;;;5067381;28;20071;-85
2022/09/12 10:06:47;;;;;;;0.00;0.00;;;21.30;99.90;;;;;;5084463;28;20493;-85
2022/09/12 10:09:23;;;;;;;0.00;0.00;;;21.20;99.90;;;;;;5071693;28;20036;-86
2022/09/12 10:11:53;;;;;;;0.00;0.00;;;21.30;99.90;;;;;;5065047;28;20062;-84
2022/09/12 10:14:28;;;;;;;0.00;0.00;;;21.40;99.90;;;;;;5049094;28;20041;-81
2022/09/12 10:16:56;;;;;;;0.00;0.00;;;21.50;99.90;;;;;;5054408;28;20068;-85
2022/09/12 10:19:33;;;;;;;0.00;0.00;;;21.40;99.90;;;;;;5061451;28;20955;-86
2022/09/12 10:22:01;;;;;;;0.00;0.00;;;21.40;99.90;;;;;;5059550;28;20040;-86
2022/09/12 10:24:31;;;;;;;0.00;0.00;;;21.50;99.90;;;;;;5056528;28;20063;-85
2022/09/12 10:27:11;;;;;;;0.00;0.00;;;21.30;99.90;;;;;;5067548;28;20039;-86
2022/09/12 10:29:44;;;;;;;0.00;0.00;;;21.50;99.90;;;;;;5067888;28;20036;-84
2022/09/12 10:32:17;;;;;;;0.00;0.00;;;21.60;99.90;;;;;;5057742;28;20043;-85
2022/09/12 10:34:45;;;;;;;0.00;0.00;;;21.70;99.90;;;;;;5053077;28;20501;-84
2022/09/12 10:37:18;;;;;;;0.00;0.00;;;21.80;99.60;;;;;;5058112;28;20070;-84
2022/09/12 10:39:51;;;;;;;0.00;0.00;;;21.80;99.90;;;;;;5064371;28;20051;-86
2022/09/12 10:42:48;;;;;;;0.00;0.00;;;21.80;99.90;;;;;;5063913;28;20079;-86
2022/09/12 10:45:24;;;;;;;0.00;0.00;;;21.90;99.90;;;;;;5062608;28;20403;-84
2022/09/12 10:47:52;;;;;;;0.00;0.00;;;22.00;99.90;;;;;;5065032;28;20045;-85
2022/09/12 10:50:27;;;;;;;0.00;0.00;;;21.90;99.90;;;;;;5064186;28;20040;-84
2022/09/12 10:53:12;;;;;;;0.00;0.00;;;22.00;99.60;;;;;;5070394;28;20659;-83
2022/09/12 10:55:49;;;;;;;0.00;0.00;;;22.20;99.90;;;;;;5066744;28;20499;-83
2022/09/12 10:58:41;;;;;;;0.00;0.00;;;22.20;99.90;;;;;;5066794;28;20075;-85
2022/09/12 11:01:20;;;;;;;0.00;0.00;;;22.30;99.30;;;;;;5066593;28;20044;-85
2022/09/12 11:04:03;;;;;;;0.00;0.00;;;22.40;99.60;;;;;;5068582;28;20048;-84
2022/09/12 11:06:37;;;;;;;0.00;0.00;;;22.50;99.60;;;;;;5074688;28;20270;-86
2022/09/12 11:09:11;;;;;;;0.00;0.00;;;22.50;98.90;;;;;;5074613;28;20036;-85
2022/09/12 11:11:52;;;;;;;0.00;0.00;;;22.60;99.00;;;;;;5081395;28;20045;-83
2022/09/12 11:14:36;;;;;;;0.00;0.00;;;22.50;98.00;;;;;;5068411;28;20040;-85
2022/09/12 11:17:18;;;;;;;0.00;0.00;;;22.50;98.60;;;;;;5069362;28;20040;-86
2022/09/12 11:20:13;;;;;;;0.00;0.00;;;22.50;98.20;;;;;;5064770;28;20108;-85
2022/09/12 11:23:04;;;;;;;0.00;0.00;;;22.30;98.40;;;;;;5078923;28;20040;-86
2022/09/12 11:25:39;;;;;;;0.00;0.00;;;22.40;98.70;;;;;;5062625;28;20049;-86
2022/09/12 11:28:27;;;;;;;0.00;0.00;;;22.30;98.00;;;;;;5075903;28;20048;-84
2022/09/12 11:31:13;;;;;;;0.00;0.00;;;22.20;98.40;;;;;;5085120;28;20079;-84
2022/09/12 11:33:42;;;;;;;0.00;0.00;;;22.20;98.40;;;;;;5067930;28;20044;-84
2022/09/12 11:36:19;;;;;;;0.00;0.00;;;22.20;99.10;;;;;;5069732;28;20680;-85
2022/09/12 11:38:51;;;;;;;0.00;0.00;;;22.30;98.70;;;;;;5083011;28;20040;-85
2022/09/12 11:41:23;;;;;;;0.00;0.00;;;22.40;99.00;;;;;;5070522;28;20143;-83
2022/09/12 11:43:55;;;;;;;0.00;0.00;;;22.50;98.90;;;;;;5063519;28;20056;-85
2022/09/12 11:46:30;;;;;;;0.00;0.00;;;22.60;99.00;;;;;;5061601;28;20047;-86
2022/09/12 11:48:59;;;;;;;0.00;0.00;;;22.60;97.80;;;;;;5073195;28;20496;-84
2022/09/12 11:51:28;;;;;;;0.00;0.00;;;22.60;97.80;;;;;;5072304;28;20044;-84
2022/09/12 11:54:05;;;;;;;0.00;0.00;;;22.60;98.30;;;;;;5073101;28;20044;-84
2022/09/12 11:56:37;;;;;;;0.00;0.00;;;22.60;98.50;;;;;;5066928;28;20073;-83
2022/09/12 11:59:10;;;;;;;0.00;0.00;;;22.60;98.20;;;;;;5075100;28;20485;-84
2022/09/12 12:01:43;;;;;;;0.00;0.00;;;22.60;98.30;;;;;;5065261;28;20481;-85
2022/09/12 12:04:19;;;;;;;0.00;0.00;;;22.60;98.10;;;;;;5060694;28;20917;-85
2022/09/12 12:06:54;;;;;;;0.00;0.00;;;22.50;97.90;;;;;;5076348;28;20033;-86
2022/09/12 12:09:21;;;;;;;0.00;0.00;;;22.60;98.50;;;;;;5067170;28;20043;-84
2022/09/12 12:11:52;;;;;;;0.00;0.00;;;22.70;98.10;;;;;;5066500;28;20048;-87
2022/09/12 12:14:23;;;;;;;0.00;0.00;;;22.80;98.20;;;;;;5059868;28;20033;-85
2022/09/12 12:16:52;;;;;;;0.00;0.00;;;22.80;98.40;;;;;;5063977;28;20087;-84
2022/09/12 12:19:36;;;;;;;0.00;0.00;;;22.80;98.30;;;;;;5063765;28;20051;-84
2022/09/12 12:22:07;;;;;;;0.00;0.00;;;22.80;97.90;;;;;;5065027;28;20057;-86
2022/09/12 12:24:34;;;;;;;0.00;0.00;;;22.60;98.70;;;;;;5069782;28;20049;-84
2022/09/12 12:27:02;;;;;;;0.00;0.00;;;22.60;98.60;;;;;;5073280;28;20392;-85
2022/09/12 12:29:40;;;;;;;0.00;0.00;;;22.60;97.40;;;;;;5094295;28;20045;-82
2022/09/12 12:32:23;;;;;;;0.00;0.00;;;22.60;98.20;;;;;;5061652;28;20059;-81
2022/09/12 12:35:01;;;;;;;0.00;0.00;;;22.40;97.60;;;;;;5066489;28;20051;-84
2022/09/12 12:37:49;;;;;;;0.00;0.00;;;22.40;98.20;;;;;;5062118;28;20063;-84
2022/09/12 12:40:24;;;;;;;0.00;0.00;;;22.30;99.20;;;;;;5070178;28;20048;-86
2022/09/12 12:43:24;;;;;;;0.00;0.00;;;22.40;98.80;;;;;;5076648;28;20401;-85
2022/09/12 12:46:04;;;;;;;0.00;0.00;;;22.50;99.10;;;;;;5063838;28;20049;-85
2022/09/12 12:48:56;;;;;;;0.00;0.00;;;22.40;97.90;;;;;;5062878;28;20052;-84
2022/09/12 12:51:54;;;;;;;0.00;0.00;;;22.30;98.20;;;;;;5064719;28;20044;-86
2022/09/12 12:54:50;;;;;;;0.00;0.00;;;22.40;98.60;;;;;;5066728;28;20076;-84
2022/09/12 12:57:37;;;;;;;0.00;0.00;;;22.40;99.60;;;;;;5066228;28;20556;-85
2022/09/12 13:00:07;;;;;;;0.00;0.00;;;22.40;99.10;;;;;;5066995;28;20475;-81
2022/09/12 13:02:39;;;;;;;0.00;0.00;;;22.40;98.70;;;;;;5065818;28;20048;-83
2022/09/12 13:05:18;;;;;;;0.00;0.00;;;22.40;98.90;;;;;;5063907;28;20029;-83
2022/09/12 13:07:53;;;;;;;0.00;0.00;;;22.40;98.70;;;;;;5084111;28;20085;-85
2022/09/12 13:10:23;;;;;;;0.00;0.00;;;22.30;98.50;;;;;;5066086;28;20055;-85
2022/09/12 13:12:50;;;;;;;;;;;22.50;97.90;;;;;;5056803;28;20040;-83